createdAt,value
2018-06-15T00:00:02.315Z,99.00
2018-06-15T00:02:31.955Z,99.90
2018-06-15T00:05:00.171Z,99.80
2018-06-15T00:07:28.391Z,99.90
2018-06-15T00:09:56.907Z,99.90
2018-06-15T00:12:25.103Z,99.60
2018-06-15T00:14:53.303Z,99.80
2018-06-15T00:17:21.595Z,99.10
2018-06-15T00:19:49.795Z,99.40
2018-06-15T00:22:18.184Z,99.80
2018-06-15T00:24:46.383Z,99.50
2018-06-15T00:27:14.615Z,99.90
2018-06-15T00:29:42.811Z,99.50
2018-06-15T00:32:11.035Z,99.90
2018-06-15T00:34:39.227Z,99.90
2018-06-15T00:37:07.443Z,99.90
2018-06-15T00:39:35.689Z,99.90
2018-06-15T00:42:03.926Z,99.90
2018-06-15T00:44:32.059Z,99.90
2018-06-15T00:47:00.278Z,99.90
2018-06-15T00:49:28.471Z,99.90
2018-06-15T00:51:56.683Z,99.90
2018-06-15T00:54:24.899Z,99.90
2018-06-15T00:57:04.660Z,99.90
2018-06-15T00:59:32.867Z,99.90
2018-06-15T01:06:57.033Z,99.90
2018-06-15T01:09:25.779Z,99.90
2018-06-15T01:14:22.016Z,99.90
2018-06-15T01:16:50.191Z,99.90
2018-06-15T01:19:18.385Z,99.90
2018-06-15T01:21:46.619Z,99.90
2018-06-15T01:24:15.426Z,99.90
2018-06-15T01:26:43.643Z,99.90
2018-06-15T01:29:11.875Z,99.90
2018-06-15T01:31:40.065Z,99.90
2018-06-15T01:34:08.270Z,99.90
2018-06-15T01:36:36.479Z,99.90
2018-06-15T01:39:06.863Z,99.90
2018-06-15T01:41:35.223Z,99.90
2018-06-15T01:44:03.935Z,99.90
2018-06-15T01:46:32.119Z,99.90
2018-06-15T01:49:00.418Z,99.90
2018-06-15T01:53:57.179Z,99.90
2018-06-15T01:56:25.427Z,99.90
2018-06-15T01:58:53.832Z,99.90
2018-06-15T02:01:22.088Z,99.90
2018-06-15T02:03:50.267Z,99.90
2018-06-15T02:06:18.471Z,99.90
2018-06-15T02:08:46.663Z,99.90
2018-06-15T02:11:14.911Z,99.90
2018-06-15T02:13:43.130Z,99.90
2018-06-15T02:16:11.338Z,99.90
2018-06-15T02:18:39.528Z,99.90
2018-06-15T02:21:07.728Z,99.90
2018-06-15T02:23:35.932Z,99.90
2018-06-15T02:26:04.350Z,99.90
2018-06-15T02:28:32.572Z,99.90
2018-06-15T02:31:00.787Z,99.90
2018-06-15T02:33:28.971Z,99.90
2018-06-15T02:35:57.187Z,99.90
2018-06-15T02:38:25.387Z,99.90
2018-06-15T02:40:53.583Z,99.90
2018-06-15T02:43:21.779Z,99.90
2018-06-15T02:45:49.971Z,99.90
2018-06-15T02:53:14.138Z,99.90
2018-06-15T02:55:42.346Z,99.90
2018-06-15T02:58:10.539Z,99.90
2018-06-15T03:00:38.740Z,99.90
2018-06-15T03:57:23.731Z,99.90
2018-06-15T03:59:51.956Z,99.90
2018-06-15T04:09:44.628Z,99.90
2018-06-15T04:12:12.867Z,99.90
2018-06-15T04:14:41.077Z,99.90
2018-06-15T04:17:09.323Z,99.90
2018-06-15T04:19:37.531Z,99.90
2018-06-15T04:22:05.730Z,99.90
2018-06-15T04:24:33.965Z,99.90
2018-06-15T04:27:02.179Z,99.90
2018-06-15T04:29:30.463Z,99.90
2018-06-15T04:31:58.784Z,99.90
2018-06-15T04:34:27.105Z,99.90
2018-06-15T04:36:55.312Z,99.90
2018-06-15T04:39:23.535Z,99.90
2018-06-15T04:46:47.705Z,99.90
2018-06-15T04:49:16.070Z,99.90
2018-06-15T04:51:44.264Z,99.90
2018-06-15T04:54:12.475Z,99.90
2018-06-15T04:56:40.678Z,99.90
2018-06-15T04:59:08.881Z,99.90
2018-06-15T05:01:40.345Z,99.90
2018-06-15T05:04:08.551Z,99.90
2018-06-15T05:06:36.751Z,99.90
2018-06-15T05:09:07.411Z,99.90
2018-06-15T05:11:35.620Z,99.90
2018-06-15T05:14:03.811Z,99.90
2018-06-15T05:16:32.024Z,99.90
2018-06-15T05:19:00.252Z,99.90
2018-06-15T05:21:28.448Z,99.90
2018-06-15T05:23:56.735Z,99.90
2018-06-15T05:26:24.959Z,99.90
2018-06-15T05:28:53.175Z,99.90
2018-06-15T05:31:21.552Z,99.90
2018-06-15T05:33:49.788Z,99.90
2018-06-15T05:36:17.995Z,99.90
2018-06-15T05:41:14.145Z,99.90
2018-06-15T05:43:42.374Z,99.90
2018-06-15T05:46:10.679Z,99.90
2018-06-15T05:48:38.884Z,99.90
2018-06-15T05:53:35.132Z,98.00
2018-06-15T05:56:03.364Z,99.00
2018-06-15T05:58:31.560Z,95.00
2018-06-15T06:00:59.803Z,95.60
2018-06-15T06:03:28.014Z,94.50
2018-06-15T06:05:56.220Z,91.80
2018-06-15T06:08:24.474Z,89.00
2018-06-15T06:10:52.659Z,91.70
2018-06-15T06:13:20.850Z,91.00
2018-06-15T06:15:49.258Z,87.40
2018-06-15T06:18:17.451Z,88.90
2018-06-15T06:28:09.551Z,84.10
2018-06-15T06:33:06.008Z,85.70
2018-06-15T06:40:30.372Z,82.00
2018-06-15T06:42:58.575Z,81.70
2018-06-15T06:45:26.772Z,78.60
2018-06-15T06:47:54.995Z,78.40
2018-06-15T06:52:51.212Z,77.60
2018-06-15T06:55:19.446Z,77.30
2018-06-15T06:57:47.631Z,76.30
2018-06-15T07:00:15.808Z,73.50
2018-06-15T07:02:44.751Z,75.50
2018-06-15T07:05:12.960Z,70.40
2018-06-15T07:10:09.516Z,66.60
2018-06-15T07:15:05.719Z,67.00
2018-06-15T07:17:34.005Z,61.70
2018-06-15T07:20:02.267Z,65.00
2018-06-15T07:22:30.494Z,59.60
2018-06-15T07:24:58.787Z,59.00
2018-06-15T07:29:54.913Z,55.60
2018-06-15T07:32:27.264Z,49.10
2018-06-15T07:34:55.640Z,45.30
2018-06-15T07:37:23.838Z,44.00
2018-06-15T07:39:52.070Z,43.70
2018-06-15T07:44:48.203Z,42.90
2018-06-15T07:49:44.382Z,38.80
2018-06-15T07:54:41.491Z,37.80
2018-06-15T07:57:10.003Z,37.70
2018-06-15T07:59:38.268Z,36.80
2018-06-15T08:02:06.459Z,38.90
2018-06-15T08:04:34.678Z,37.10
2018-06-15T08:11:58.971Z,35.40
2018-06-15T08:14:27.167Z,34.60
2018-06-15T08:16:55.375Z,31.90
2018-06-15T08:19:23.587Z,33.50
2018-06-15T08:21:51.784Z,32.30
2018-06-15T08:24:19.993Z,30.60
2018-06-15T08:26:48.195Z,28.90
2018-06-15T08:29:16.385Z,31.40
2018-06-15T08:31:44.567Z,29.80
2018-06-15T08:34:12.866Z,30.00
2018-06-15T08:36:41.311Z,29.10
2018-06-15T08:39:10.924Z,28.10
2018-06-15T08:44:07.101Z,28.50
2018-06-15T08:46:35.300Z,26.80
2018-06-15T08:49:03.503Z,27.40
2018-06-15T08:51:31.697Z,25.70
2018-06-15T08:56:27.897Z,24.90
2018-06-15T08:58:56.194Z,25.70
2018-06-15T09:01:24.409Z,25.00
2018-06-15T09:03:52.615Z,24.60
2018-06-15T09:06:20.818Z,26.10
2018-06-15T09:08:49.040Z,25.20
2018-06-15T09:11:17.297Z,26.00
2018-06-15T09:13:45.487Z,24.90
2018-06-15T09:16:13.704Z,24.50
2018-06-15T09:23:37.855Z,25.60
2018-06-15T09:26:06.075Z,25.50
2018-06-15T09:28:34.300Z,27.40
2018-06-15T09:31:02.488Z,26.30
2018-06-15T09:33:30.694Z,26.50
2018-06-15T09:35:58.935Z,25.70
2018-06-15T09:38:28.036Z,25.50
2018-06-15T09:43:24.363Z,25.20
2018-06-15T09:45:52.590Z,26.80
2018-06-15T09:48:20.805Z,26.50
2018-06-15T09:50:49.000Z,26.80
2018-06-15T09:53:17.203Z,25.30
2018-06-15T09:55:45.433Z,23.80
2018-06-15T09:58:13.626Z,24.40
2018-06-15T10:00:47.299Z,23.20
2018-06-15T10:03:15.537Z,23.80
2018-06-15T10:05:43.732Z,23.80
2018-06-15T10:08:11.947Z,26.70
2018-06-15T10:10:40.163Z,28.80
2018-06-15T10:13:08.563Z,30.00
2018-06-15T10:18:04.779Z,31.10
2018-06-15T10:20:33.059Z,32.20
2018-06-15T10:23:01.303Z,31.40
2018-06-15T10:25:29.491Z,31.80
2018-06-15T10:27:57.740Z,32.10
2018-06-15T10:32:54.527Z,27.10
2018-06-15T10:35:22.718Z,26.20
2018-06-15T10:37:50.957Z,26.40
2018-06-15T10:40:19.235Z,24.20
2018-06-15T10:42:47.459Z,24.10
2018-06-15T10:45:15.658Z,22.60
2018-06-15T10:47:43.851Z,21.60
2018-06-15T10:50:12.057Z,21.60
2018-06-15T10:52:40.258Z,21.80
2018-06-15T10:57:36.420Z,20.30
2018-06-15T11:02:32.639Z,19.90
2018-06-15T11:05:00.854Z,20.80
2018-06-15T11:07:29.124Z,21.10
2018-06-15T11:12:25.315Z,21.60
2018-06-15T11:14:53.524Z,21.70
2018-06-15T11:17:21.726Z,23.30
2018-06-15T11:19:49.974Z,25.10
2018-06-15T11:22:18.147Z,26.80
2018-06-15T11:24:46.925Z,27.50
2018-06-15T11:27:15.244Z,29.50
2018-06-15T11:29:43.590Z,30.10
2018-06-15T11:32:11.808Z,30.20
2018-06-15T11:34:40.030Z,28.20
2018-06-15T11:37:08.307Z,27.40
2018-06-15T11:39:36.500Z,29.70
2018-06-15T11:42:04.935Z,29.90
2018-06-15T11:44:33.143Z,27.60
2018-06-15T11:47:01.353Z,26.80
2018-06-15T11:49:29.538Z,30.30
2018-06-15T11:51:57.748Z,30.10
2018-06-15T11:54:25.940Z,28.80
2018-06-15T11:56:54.171Z,25.20
2018-06-15T11:59:22.371Z,23.70
2018-06-15T12:01:50.617Z,22.80
2018-06-15T12:04:18.823Z,23.00
2018-06-15T12:06:47.087Z,23.50
2018-06-15T12:09:15.287Z,22.90
2018-06-15T12:11:43.478Z,22.20
2018-06-15T12:14:11.663Z,20.20
2018-06-15T12:16:39.895Z,21.80
2018-06-15T12:19:08.107Z,20.10
2018-06-15T12:21:36.318Z,21.40
2018-06-15T12:26:32.592Z,20.50
2018-06-15T12:29:00.844Z,21.90
2018-06-15T12:31:29.088Z,24.30
2018-06-15T12:33:57.307Z,22.80
2018-06-15T12:38:54.466Z,22.10
2018-06-15T12:41:22.664Z,22.80
2018-06-15T12:43:51.207Z,24.80
2018-06-15T12:46:19.450Z,25.00
2018-06-15T12:53:43.635Z,28.30
2018-06-15T12:56:11.832Z,31.10
2018-06-15T12:58:40.047Z,29.70
2018-06-15T13:01:08.272Z,30.50
2018-06-15T13:03:36.447Z,31.40
2018-06-15T13:06:04.672Z,30.90
2018-06-15T13:08:32.891Z,29.90
2018-06-15T13:11:01.140Z,30.20
2018-06-15T13:18:25.897Z,31.70
2018-06-15T13:20:54.219Z,33.40
2018-06-15T13:23:22.544Z,36.10
2018-06-15T13:28:18.763Z,37.10
2018-06-15T13:30:46.950Z,36.60
2018-06-15T13:33:15.189Z,34.80
2018-06-15T13:35:43.399Z,35.70
2018-06-15T13:38:11.779Z,34.80
2018-06-15T13:40:39.976Z,36.20
2018-06-15T13:43:08.186Z,35.90
2018-06-15T13:45:37.334Z,37.70
2018-06-15T13:48:05.568Z,36.50
2018-06-15T13:50:33.783Z,35.80
2018-06-15T13:53:02.112Z,35.10
2018-06-15T13:55:30.365Z,35.40
2018-06-15T13:57:58.582Z,35.00
2018-06-15T14:02:54.759Z,36.80
2018-06-15T14:05:22.980Z,36.50
2018-06-15T14:07:51.191Z,34.90
2018-06-15T14:10:19.431Z,34.90
2018-06-15T14:12:47.765Z,36.00
2018-06-15T14:15:16.003Z,38.50
2018-06-15T14:17:44.195Z,38.40
2018-06-15T14:22:40.524Z,38.50
2018-06-15T14:25:08.740Z,37.30
2018-06-15T14:27:36.947Z,37.70
2018-06-15T14:30:05.602Z,38.60
2018-06-15T14:32:33.831Z,38.70
2018-06-15T14:35:02.369Z,37.40
2018-06-15T14:37:30.600Z,36.60
2018-06-15T14:39:58.894Z,35.10
2018-06-15T14:42:27.146Z,35.80
2018-06-15T14:44:55.347Z,36.10
2018-06-15T14:47:23.762Z,36.60
2018-06-15T14:49:51.997Z,36.40
2018-06-15T14:52:20.679Z,36.40
2018-06-15T14:54:48.871Z,36.70
2018-06-15T14:57:17.135Z,36.40
2018-06-15T14:59:45.331Z,39.10
2018-06-15T15:02:13.527Z,35.80
2018-06-15T15:04:41.726Z,37.10
2018-06-15T15:07:10.139Z,36.90
2018-06-15T15:14:34.393Z,38.60
2018-06-15T15:17:02.610Z,38.30
2018-06-15T15:19:30.843Z,38.30
2018-06-15T15:21:59.063Z,38.10
2018-06-15T15:24:27.259Z,39.60
2018-06-15T15:26:55.515Z,39.50
2018-06-15T15:29:23.744Z,39.60
2018-06-15T15:31:51.951Z,38.70
2018-06-15T15:34:20.275Z,41.60
2018-06-15T15:36:48.467Z,40.50
2018-06-15T15:39:16.680Z,41.60
2018-06-15T15:41:45.131Z,41.00
2018-06-15T15:44:13.373Z,38.80
2018-06-15T15:46:41.566Z,40.00
2018-06-15T15:49:10.099Z,40.90
2018-06-15T15:51:38.291Z,42.30
2018-06-15T15:56:34.486Z,40.80
2018-06-15T15:59:02.771Z,41.10
2018-06-15T16:01:31.141Z,41.80
2018-06-15T16:03:59.347Z,41.50
2018-06-15T16:06:27.619Z,40.00
2018-06-15T16:08:55.806Z,40.20
2018-06-15T16:11:24.031Z,40.20
2018-06-15T16:16:20.435Z,40.70
2018-06-15T16:18:48.747Z,42.80
2018-06-15T16:21:17.775Z,41.40
2018-06-15T16:23:45.979Z,41.20
2018-06-15T16:26:14.208Z,42.20
2018-06-15T16:28:42.400Z,42.50
2018-06-15T16:31:10.600Z,42.00
2018-06-15T16:33:38.847Z,40.70
2018-06-15T16:36:07.058Z,41.10
2018-06-15T16:38:35.264Z,40.60
2018-06-15T16:41:03.463Z,39.90
2018-06-15T16:43:31.667Z,41.10
2018-06-15T16:45:59.883Z,40.50
2018-06-15T16:48:29.118Z,41.90
2018-06-15T16:50:57.407Z,43.70
2018-06-15T16:53:25.608Z,43.20
2018-06-15T16:55:53.840Z,41.10
2018-06-15T16:58:22.035Z,41.90
2018-06-15T17:00:50.379Z,42.10
2018-06-15T17:05:46.575Z,41.40
2018-06-15T17:08:14.795Z,42.00
2018-06-15T17:10:43.111Z,42.60
2018-06-15T17:13:11.319Z,42.10
2018-06-15T17:15:39.523Z,42.40
2018-06-15T17:18:07.733Z,43.40
2018-06-15T17:20:35.967Z,42.20
2018-06-15T17:23:04.204Z,42.60
2018-06-15T17:25:32.471Z,41.90
2018-06-15T17:28:00.671Z,42.40
2018-06-15T17:30:28.962Z,42.20
2018-06-15T17:32:57.160Z,42.00
2018-06-15T17:35:25.351Z,43.20
2018-06-15T17:37:53.921Z,42.70
2018-06-15T17:40:22.176Z,43.70
2018-06-15T17:42:50.377Z,44.20
2018-06-15T17:45:18.618Z,44.50
2018-06-15T17:47:47.457Z,43.50
2018-06-15T17:50:15.826Z,43.50
2018-06-15T17:52:44.351Z,44.50
2018-06-15T17:55:12.563Z,44.50
2018-06-15T18:00:08.917Z,44.90
2018-06-15T18:05:05.225Z,44.70
2018-06-15T18:07:33.436Z,44.60
2018-06-15T18:10:01.719Z,44.50
2018-06-15T18:12:29.906Z,44.70
2018-06-15T18:17:26.152Z,44.80
2018-06-15T18:19:54.298Z,44.60
2018-06-15T18:22:22.571Z,44.90
2018-06-15T18:24:50.775Z,45.70
2018-06-15T18:27:19.022Z,46.10
2018-06-15T18:29:47.275Z,45.90
2018-06-15T18:34:43.446Z,47.70
2018-06-15T18:37:11.636Z,47.70
2018-06-15T18:39:40.160Z,47.50
2018-06-15T18:42:08.368Z,47.40
2018-06-15T18:44:36.602Z,49.10
2018-06-15T18:47:04.906Z,49.20
2018-06-15T18:49:33.107Z,49.10
2018-06-15T18:52:01.330Z,49.20
2018-06-15T18:54:29.778Z,49.40
2018-06-15T18:56:58.002Z,49.50
2018-06-15T18:59:26.219Z,49.70
2018-06-15T19:04:22.439Z,49.90
2018-06-15T19:06:50.879Z,50.20
2018-06-15T19:14:15.211Z,51.00
2018-06-15T19:16:43.555Z,50.90
2018-06-15T19:19:11.732Z,51.00
2018-06-15T19:21:40.022Z,51.20
2018-06-15T19:24:08.311Z,51.80
2018-06-15T19:29:04.507Z,51.90
2018-06-15T19:34:00.713Z,52.20
2018-06-15T19:36:28.935Z,52.40
2018-06-15T19:38:57.175Z,52.40
2018-06-15T19:41:25.422Z,53.60
2018-06-15T19:43:53.623Z,53.60
2018-06-15T19:46:21.912Z,53.30
2018-06-15T19:48:50.150Z,53.30
2018-06-15T19:51:18.365Z,53.40
2018-06-15T19:53:46.583Z,53.20
2018-06-15T19:56:14.887Z,53.70
2018-06-15T19:58:43.094Z,53.90
2018-06-15T20:01:11.307Z,54.00
2018-06-15T20:03:39.505Z,54.30
2018-06-15T20:08:35.687Z,55.20
2018-06-15T20:11:03.950Z,55.10
2018-06-15T20:13:32.200Z,55.50
2018-06-15T20:18:28.527Z,55.30
2018-06-15T20:20:56.759Z,55.40
2018-06-15T20:25:52.982Z,56.50
2018-06-15T20:28:21.215Z,56.00
2018-06-15T20:30:49.525Z,56.60
2018-06-15T20:33:17.735Z,57.70
2018-06-15T20:35:45.899Z,58.30
2018-06-15T20:38:14.141Z,59.40
2018-06-15T20:40:42.449Z,59.30
2018-06-15T20:43:10.738Z,60.60
2018-06-15T20:45:39.021Z,61.40
2018-06-15T20:48:07.390Z,61.60
2018-06-15T20:50:35.691Z,62.20
2018-06-15T20:53:04.498Z,61.90
2018-06-15T20:55:33.008Z,62.60
2018-06-15T20:58:01.601Z,62.90
2018-06-15T21:00:29.867Z,64.20
2018-06-15T21:02:58.080Z,64.60
2018-06-15T21:05:26.316Z,64.90
2018-06-15T21:10:22.583Z,65.00
2018-06-15T21:15:18.804Z,65.70
2018-06-15T21:17:47.090Z,66.30
2018-06-15T21:20:15.332Z,67.60
2018-06-15T21:22:43.651Z,67.20
2018-06-15T21:25:12.014Z,67.50
2018-06-15T21:27:40.280Z,68.30
2018-06-15T21:30:08.575Z,68.30
2018-06-15T21:32:36.912Z,68.50
2018-06-15T21:37:33.209Z,69.90
2018-06-15T21:40:01.504Z,70.20
2018-06-15T21:42:29.867Z,70.50
2018-06-15T21:47:26.125Z,72.10
2018-06-15T21:49:54.458Z,72.70
2018-06-15T21:52:22.813Z,72.70
2018-06-15T21:54:51.976Z,73.10
2018-06-15T21:57:21.467Z,74.50
2018-06-15T21:59:52.348Z,74.30
2018-06-15T22:02:22.581Z,75.20
2018-06-15T22:04:50.937Z,76.60
2018-06-15T22:07:22.007Z,78.60
2018-06-15T22:09:51.531Z,80.20
2018-06-15T22:12:19.851Z,79.80
2018-06-15T22:14:48.190Z,81.10
2018-06-15T22:17:17.090Z,81.50
2018-06-15T22:19:45.894Z,81.10
2018-06-15T22:28:04.753Z,83.10
2018-06-15T22:30:33.008Z,83.30
2018-06-15T22:33:01.216Z,84.90
2018-06-15T22:37:58.478Z,86.50
2018-06-15T22:40:26.733Z,86.80
2018-06-15T22:42:55.895Z,88.00
2018-06-15T22:45:24.126Z,87.90
2018-06-15T22:47:52.352Z,89.40
2018-06-15T22:50:20.559Z,90.70
2018-06-15T22:52:48.798Z,90.30
2018-06-15T22:57:44.978Z,91.00
2018-06-15T23:00:16.495Z,91.20
2018-06-15T23:02:44.803Z,91.30
2018-06-15T23:05:13.042Z,91.90
2018-06-15T23:07:41.405Z,93.40
2018-06-15T23:10:10.557Z,93.10
2018-06-15T23:15:07.239Z,93.60
2018-06-15T23:17:35.475Z,93.40
2018-06-15T23:20:03.752Z,94.50
2018-06-15T23:29:56.014Z,95.30
2018-06-15T23:32:24.231Z,95.10
2018-06-15T23:34:52.968Z,94.90
2018-06-15T23:39:49.172Z,95.20
2018-06-15T23:42:17.404Z,96.40
2018-06-15T23:47:13.621Z,96.80
2018-06-15T23:49:41.853Z,95.40
2018-06-15T23:52:10.044Z,95.70
2018-06-15T23:54:38.314Z,96.10
2018-06-15T23:57:06.591Z,95.30
2018-06-15T23:59:34.839Z,95.10
